sensor_id;sensor_type;location;lat;lon;timestamp;temperature;humidity
70928;SHT31;58587;53.034;18.576;2023-09-12T00:01:20;17.31;82.49
70928;SHT31;58587;53.034;18.576;2023-09-12T00:03:46;17.30;82.53
70928;SHT31;58587;53.034;18.576;2023-09-12T00:06:11;17.25;82.77
70928;SHT31;58587;53.034;18.576;2023-09-12T00:08:37;17.22;82.86
70928;SHT31;58587;53.034;18.576;2023-09-12T00:11:05;17.20;82.98
70928;SHT31;58587;53.034;18.576;2023-09-12T00:13:33;17.18;83.00
70928;SHT31;58587;53.034;18.576;2023-09-12T00:15:58;17.18;82.95
70928;SHT31;58587;53.034;18.576;2023-09-12T00:18:24;17.14;83.02
70928;SHT31;58587;53.034;18.576;2023-09-12T00:20:50;17.12;83.22
70928;SHT31;58587;53.034;18.576;2023-09-12T00:23:16;17.10;83.23
70928;SHT31;58587;53.034;18.576;2023-09-12T00:25:41;17.08;83.34
70928;SHT31;58587;53.034;18.576;2023-09-12T00:28:07;17.07;83.37
70928;SHT31;58587;53.034;18.576;2023-09-12T00:30:32;17.06;83.42
70928;SHT31;58587;53.034;18.576;2023-09-12T00:32:57;16.99;83.43
70928;SHT31;58587;53.034;18.576;2023-09-12T00:35:23;16.95;83.54
70928;SHT31;58587;53.034;18.576;2023-09-12T00:37:48;16.94;83.62
70928;SHT31;58587;53.034;18.576;2023-09-12T00:40:13;16.90;83.66
70928;SHT31;58587;53.034;18.576;2023-09-12T00:42:39;16.90;83.59
70928;SHT31;58587;53.034;18.576;2023-09-12T00:45:05;16.84;83.67
70928;SHT31;58587;53.034;18.576;2023-09-12T00:47:30;16.81;83.83
70928;SHT31;58587;53.034;18.576;2023-09-12T00:49:56;16.81;83.87
70928;SHT31;58587;53.034;18.576;2023-09-12T00:52:27;16.77;83.94
70928;SHT31;58587;53.034;18.576;2023-09-12T00:54:54;16.76;84.07
70928;SHT31;58587;53.034;18.576;2023-09-12T00:57:21;16.73;84.10
70928;SHT31;58587;53.034;18.576;2023-09-12T00:59:47;16.71;84.07
70928;SHT31;58587;53.034;18.576;2023-09-12T01:02:13;16.70;84.11
70928;SHT31;58587;53.034;18.576;2023-09-12T01:04:38;16.67;84.08
70928;SHT31;58587;53.034;18.576;2023-09-12T01:07:04;16.67;84.15
70928;SHT31;58587;53.034;18.576;2023-09-12T01:09:31;16.66;84.34
70928;SHT31;58587;53.034;18.576;2023-09-12T01:11:56;16.63;84.34
70928;SHT31;58587;53.034;18.576;2023-09-12T01:14:22;16.60;84.49
70928;SHT31;58587;53.034;18.576;2023-09-12T01:16:47;16.59;84.46
70928;SHT31;58587;53.034;18.576;2023-09-12T01:19:14;16.60;84.54
70928;SHT31;58587;53.034;18.576;2023-09-12T01:27:30;16.49;84.83
70928;SHT31;58587;53.034;18.576;2023-09-12T01:29:57;16.48;84.82
70928;SHT31;58587;53.034;18.576;2023-09-12T01:32:23;16.49;84.84
70928;SHT31;58587;53.034;18.576;2023-09-12T01:34:49;16.48;84.68
70928;SHT31;58587;53.034;18.576;2023-09-12T01:37:14;16.48;84.79
70928;SHT31;58587;53.034;18.576;2023-09-12T01:39:40;16.43;84.89
70928;SHT31;58587;53.034;18.576;2023-09-12T01:42:06;16.39;84.88
70928;SHT31;58587;53.034;18.576;2023-09-12T01:44:34;16.38;84.94
70928;SHT31;58587;53.034;18.576;2023-09-12T01:47:03;16.36;85.04
70928;SHT31;58587;53.034;18.576;2023-09-12T01:49:30;16.34;85.06
70928;SHT31;58587;53.034;18.576;2023-09-12T01:51:56;16.33;85.05
70928;SHT31;58587;53.034;18.576;2023-09-12T01:54:24;16.32;85.01
70928;SHT31;58587;53.034;18.576;2023-09-12T01:56:51;16.26;85.13
70928;SHT31;58587;53.034;18.576;2023-09-12T01:59:16;16.29;85.16
70928;SHT31;58587;53.034;18.576;2023-09-12T02:01:41;16.25;85.14
70928;SHT31;58587;53.034;18.576;2023-09-12T02:04:08;16.25;85.20
70928;SHT31;58587;53.034;18.576;2023-09-12T02:06:34;16.22;85.11
70928;SHT31;58587;53.034;18.576;2023-09-12T02:09:00;16.19;85.19
70928;SHT31;58587;53.034;18.576;2023-09-12T02:11:26;16.15;85.32
70928;SHT31;58587;53.034;18.576;2023-09-12T02:13:52;16.16;85.31
70928;SHT31;58587;53.034;18.576;2023-09-12T02:16:17;16.16;85.41
70928;SHT31;58587;53.034;18.576;2023-09-12T02:18:42;16.18;85.29
70928;SHT31;58587;53.034;18.576;2023-09-12T02:21:08;16.16;85.28
70928;SHT31;58587;53.034;18.576;2023-09-12T02:23:33;16.10;85.47
70928;SHT31;58587;53.034;18.576;2023-09-12T02:25:58;16.12;85.61
70928;SHT31;58587;53.034;18.576;2023-09-12T02:28:23;16.08;85.62
70928;SHT31;58587;53.034;18.576;2023-09-12T02:30:49;16.05;85.65
70928;SHT31;58587;53.034;18.576;2023-09-12T02:33:15;16.02;85.63
70928;SHT31;58587;53.034;18.576;2023-09-12T02:35:40;16.04;85.68
70928;SHT31;58587;53.034;18.576;2023-09-12T02:38:05;16.01;85.68
70928;SHT31;58587;53.034;18.576;2023-09-12T02:40:31;16.04;85.74
70928;SHT31;58587;53.034;18.576;2023-09-12T02:42:56;15.99;85.75
70928;SHT31;58587;53.034;18.576;2023-09-12T02:45:21;16.01;85.80
70928;SHT31;58587;53.034;18.576;2023-09-12T02:47:47;15.98;85.77
70928;SHT31;58587;53.034;18.576;2023-09-12T02:50:12;15.96;85.73
70928;SHT31;58587;53.034;18.576;2023-09-12T02:52:37;15.95;85.79
70928;SHT31;58587;53.034;18.576;2023-09-12T02:55:03;15.94;85.98
70928;SHT31;58587;53.034;18.576;2023-09-12T02:57:28;15.94;85.87
70928;SHT31;58587;53.034;18.576;2023-09-12T02:59:54;15.95;85.81
70928;SHT31;58587;53.034;18.576;2023-09-12T03:02:19;15.89;85.95
70928;SHT31;58587;53.034;18.576;2023-09-12T03:04:44;15.88;85.88
70928;SHT31;58587;53.034;18.576;2023-09-12T03:07:10;15.84;85.99
70928;SHT31;58587;53.034;18.576;2023-09-12T03:09:35;15.82;86.05
70928;SHT31;58587;53.034;18.576;2023-09-12T03:12:03;15.78;85.98
70928;SHT31;58587;53.034;18.576;2023-09-12T03:14:28;15.74;85.97
70928;SHT31;58587;53.034;18.576;2023-09-12T03:16:54;15.71;85.98
70928;SHT31;58587;53.034;18.576;2023-09-12T03:19:19;15.69;85.91
70928;SHT31;58587;53.034;18.576;2023-09-12T03:21:45;15.65;85.92
70928;SHT31;58587;53.034;18.576;2023-09-12T03:24:10;15.62;85.96
70928;SHT31;58587;53.034;18.576;2023-09-12T03:26:35;15.61;85.96
70928;SHT31;58587;53.034;18.576;2023-09-12T03:29:02;15.62;86.03
70928;SHT31;58587;53.034;18.576;2023-09-12T03:31:27;15.58;86.09
70928;SHT31;58587;53.034;18.576;2023-09-12T03:33:54;15.54;86.09
70928;SHT31;58587;53.034;18.576;2023-09-12T03:36:19;15.54;86.16
70928;SHT31;58587;53.034;18.576;2023-09-12T03:38:44;15.51;86.10
70928;SHT31;58587;53.034;18.576;2023-09-12T03:41:10;15.51;86.07
70928;SHT31;58587;53.034;18.576;2023-09-12T03:43:36;15.47;86.19
70928;SHT31;58587;53.034;18.576;2023-09-12T03:46:01;15.48;86.26
70928;SHT31;58587;53.034;18.576;2023-09-12T03:48:28;15.44;86.29
70928;SHT31;58587;53.034;18.576;2023-09-12T03:50:56;15.40;86.48
70928;SHT31;58587;53.034;18.576;2023-09-12T03:53:21;15.35;86.52
70928;SHT31;58587;53.034;18.576;2023-09-12T03:55:46;15.34;86.48
70928;SHT31;58587;53.034;18.576;2023-09-12T03:58:12;15.31;86.50
70928;SHT31;58587;53.034;18.576;2023-09-12T04:00:37;15.31;86.63
70928;SHT31;58587;53.034;18.576;2023-09-12T04:03:03;15.30;86.68
70928;SHT31;58587;53.034;18.576;2023-09-12T04:05:28;15.26;86.63
70928;SHT31;58587;53.034;18.576;2023-09-12T04:07:53;15.26;86.76
70928;SHT31;58587;53.034;18.576;2023-09-12T04:10:22;15.24;86.85
70928;SHT31;58587;53.034;18.576;2023-09-12T04:12:47;15.26;86.92
70928;SHT31;58587;53.034;18.576;2023-09-12T04:15:13;15.22;86.98
70928;SHT31;58587;53.034;18.576;2023-09-12T04:17:38;15.24;86.91
70928;SHT31;58587;53.034;18.576;2023-09-12T04:20:04;15.26;86.83
70928;SHT31;58587;53.034;18.576;2023-09-12T04:22:30;15.24;86.94
70928;SHT31;58587;53.034;18.576;2023-09-12T04:24:55;15.24;86.99
70928;SHT31;58587;53.034;18.576;2023-09-12T04:27:20;15.22;87.11
70928;SHT31;58587;53.034;18.576;2023-09-12T04:29:46;15.24;87.03
70928;SHT31;58587;53.034;18.576;2023-09-12T04:32:11;15.24;87.06
70928;SHT31;58587;53.034;18.576;2023-09-12T04:34:37;15.26;87.15
70928;SHT31;58587;53.034;18.576;2023-09-12T04:37:02;15.24;87.18
70928;SHT31;58587;53.034;18.576;2023-09-12T04:39:28;15.24;87.35
70928;SHT31;58587;53.034;18.576;2023-09-12T04:41:53;15.23;87.21
70928;SHT31;58587;53.034;18.576;2023-09-12T04:44:19;15.24;87.42
70928;SHT31;58587;53.034;18.576;2023-09-12T04:46:44;15.23;87.34
70928;SHT31;58587;53.034;18.576;2023-09-12T04:49:10;15.26;87.37
70928;SHT31;58587;53.034;18.576;2023-09-12T04:51:35;15.27;87.37
70928;SHT31;58587;53.034;18.576;2023-09-12T04:54:00;15.27;87.36
70928;SHT31;58587;53.034;18.576;2023-09-12T04:56:26;15.27;87.23
70928;SHT31;58587;53.034;18.576;2023-09-12T04:58:51;15.27;87.31
70928;SHT31;58587;53.034;18.576;2023-09-12T05:01:17;15.30;87.36
70928;SHT31;58587;53.034;18.576;2023-09-12T05:03:43;15.31;87.32
70928;SHT31;58587;53.034;18.576;2023-09-12T05:06:09;15.34;87.28
70928;SHT31;58587;53.034;18.576;2023-09-12T05:08:35;15.40;87.35
70928;SHT31;58587;53.034;18.576;2023-09-12T05:11:01;15.43;87.33
70928;SHT31;58587;53.034;18.576;2023-09-12T05:13:27;15.47;87.37
70928;SHT31;58587;53.034;18.576;2023-09-12T05:15:53;15.48;87.44
70928;SHT31;58587;53.034;18.576;2023-09-12T05:18:18;15.55;87.48
70928;SHT31;58587;53.034;18.576;2023-09-12T05:20:43;15.61;87.49
70928;SHT31;58587;53.034;18.576;2023-09-12T05:23:09;15.64;87.40
70928;SHT31;58587;53.034;18.576;2023-09-12T05:25:34;15.67;87.26
70928;SHT31;58587;53.034;18.576;2023-09-12T05:27:59;15.71;87.35
70928;SHT31;58587;53.034;18.576;2023-09-12T05:30:24;15.78;87.31
70928;SHT31;58587;53.034;18.576;2023-09-12T05:32:50;15.81;87.28
70928;SHT31;58587;53.034;18.576;2023-09-12T05:35:15;15.88;87.22
70928;SHT31;58587;53.034;18.576;2023-09-12T05:37:40;15.96;87.26
70928;SHT31;58587;53.034;18.576;2023-09-12T05:40:06;16.04;87.09
70928;SHT31;58587;53.034;18.576;2023-09-12T05:42:32;16.10;86.95
70928;SHT31;58587;53.034;18.576;2023-09-12T05:44:57;16.18;87.01
70928;SHT31;58587;53.034;18.576;2023-09-12T05:47:22;16.28;86.83
70928;SHT31;58587;53.034;18.576;2023-09-12T05:49:48;16.33;86.84
70928;SHT31;58587;53.034;18.576;2023-09-12T05:52:13;16.45;86.90
70928;SHT31;58587;53.034;18.576;2023-09-12T05:54:39;16.53;86.44
70928;SHT31;58587;53.034;18.576;2023-09-12T05:57:06;16.63;86.49
70928;SHT31;58587;53.034;18.576;2023-09-12T05:59:31;16.71;86.35
70928;SHT31;58587;53.034;18.576;2023-09-12T06:01:57;16.79;86.17
70928;SHT31;58587;53.034;18.576;2023-09-12T06:04:22;16.90;86.12
70928;SHT31;58587;53.034;18.576;2023-09-12T06:06:47;16.99;86.01
70928;SHT31;58587;53.034;18.576;2023-09-12T06:09:13;17.10;85.82
70928;SHT31;58587;53.034;18.576;2023-09-12T06:11:38;17.21;85.71
70928;SHT31;58587;53.034;18.576;2023-09-12T06:14:03;17.31;85.64
70928;SHT31;58587;53.034;18.576;2023-09-12T06:16:29;17.38;85.70
70928;SHT31;58587;53.034;18.576;2023-09-12T06:18:55;17.46;85.34
70928;SHT31;58587;53.034;18.576;2023-09-12T06:21:20;17.61;85.32
70928;SHT31;58587;53.034;18.576;2023-09-12T06:23:47;17.71;85.26
70928;SHT31;58587;53.034;18.576;2023-09-12T06:26:12;17.82;85.17
70928;SHT31;58587;53.034;18.576;2023-09-12T06:28:38;17.90;85.07
70928;SHT31;58587;53.034;18.576;2023-09-12T06:31:03;18.07;84.74
70928;SHT31;58587;53.034;18.576;2023-09-12T06:33:28;18.20;84.67
70928;SHT31;58587;53.034;18.576;2023-09-12T06:35:54;18.30;84.46
70928;SHT31;58587;53.034;18.576;2023-09-12T06:38:21;18.43;84.13
70928;SHT31;58587;53.034;18.576;2023-09-12T06:40:47;18.54;83.88
70928;SHT31;58587;53.034;18.576;2023-09-12T06:43:13;18.70;83.46
70928;SHT31;58587;53.034;18.576;2023-09-12T06:45:40;18.80;83.46
70928;SHT31;58587;53.034;18.576;2023-09-12T06:48:05;18.92;83.09
70928;SHT31;58587;53.034;18.576;2023-09-12T06:50:31;19.02;82.88
70928;SHT31;58587;53.034;18.576;2023-09-12T06:52:56;19.11;82.74
70928;SHT31;58587;53.034;18.576;2023-09-12T06:55:21;19.23;82.10
70928;SHT31;58587;53.034;18.576;2023-09-12T06:57:47;19.32;82.28
70928;SHT31;58587;53.034;18.576;2023-09-12T07:00:12;19.43;82.40
70928;SHT31;58587;53.034;18.576;2023-09-12T07:02:38;19.53;81.75
70928;SHT31;58587;53.034;18.576;2023-09-12T07:05:04;19.66;81.59
70928;SHT31;58587;53.034;18.576;2023-09-12T07:07:30;19.76;80.53
70928;SHT31;58587;53.034;18.576;2023-09-12T07:09:55;19.83;80.66
70928;SHT31;58587;53.034;18.576;2023-09-12T07:12:21;19.96;80.28
70928;SHT31;58587;53.034;18.576;2023-09-12T07:14:46;20.04;79.87
70928;SHT31;58587;53.034;18.576;2023-09-12T07:17:11;20.13;79.69
70928;SHT31;58587;53.034;18.576;2023-09-12T07:19:37;20.26;78.49
70928;SHT31;58587;53.034;18.576;2023-09-12T07:22:02;20.31;78.34
70928;SHT31;58587;53.034;18.576;2023-09-12T07:24:28;20.41;78.53
70928;SHT31;58587;53.034;18.576;2023-09-12T07:26:53;20.49;77.83
70928;SHT31;58587;53.034;18.576;2023-09-12T07:29:19;20.63;77.23
70928;SHT31;58587;53.034;18.576;2023-09-12T07:31:44;20.67;77.60
70928;SHT31;58587;53.034;18.576;2023-09-12T07:34:10;20.81;77.24
70928;SHT31;58587;53.034;18.576;2023-09-12T07:36:37;20.88;77.26
70928;SHT31;58587;53.034;18.576;2023-09-12T07:39:03;20.99;77.86
70928;SHT31;58587;53.034;18.576;2023-09-12T07:41:29;21.08;77.47
70928;SHT31;58587;53.034;18.576;2023-09-12T07:43:55;21.16;77.20
70928;SHT31;58587;53.034;18.576;2023-09-12T07:46:20;21.26;76.34
70928;SHT31;58587;53.034;18.576;2023-09-12T07:48:45;21.35;75.60
70928;SHT31;58587;53.034;18.576;2023-09-12T07:51:15;21.39;74.10
70928;SHT31;58587;53.034;18.576;2023-09-12T07:53:42;21.45;74.01
70928;SHT31;58587;53.034;18.576;2023-09-12T07:56:09;21.50;73.52
70928;SHT31;58587;53.034;18.576;2023-09-12T07:58:35;21.62;72.25
70928;SHT31;58587;53.034;18.576;2023-09-12T08:01:07;21.67;72.70
70928;SHT31;58587;53.034;18.576;2023-09-12T08:03:34;21.77;71.12
70928;SHT31;58587;53.034;18.576;2023-09-12T08:06:00;21.84;72.05
70928;SHT31;58587;53.034;18.576;2023-09-12T08:08:25;21.91;68.78
70928;SHT31;58587;53.034;18.576;2023-09-12T08:10:51;21.97;70.49
70928;SHT31;58587;53.034;18.576;2023-09-12T08:13:16;22.07;70.76
70928;SHT31;58587;53.034;18.576;2023-09-12T08:15:41;22.15;70.51
70928;SHT31;58587;53.034;18.576;2023-09-12T08:18:06;22.20;69.90
70928;SHT31;58587;53.034;18.576;2023-09-12T08:20:32;22.33;70.19
70928;SHT31;58587;53.034;18.576;2023-09-12T08:22:57;22.40;71.51
70928;SHT31;58587;53.034;18.576;2023-09-12T08:25:22;22.52;70.80
70928;SHT31;58587;53.034;18.576;2023-09-12T08:27:49;22.65;70.10
70928;SHT31;58587;53.034;18.576;2023-09-12T08:30:15;22.72;67.83
70928;SHT31;58587;53.034;18.576;2023-09-12T08:32:41;22.85;69.27
70928;SHT31;58587;53.034;18.576;2023-09-12T08:35:09;22.96;68.23
70928;SHT31;58587;53.034;18.576;2023-09-12T08:37:35;23.00;66.06
70928;SHT31;58587;53.034;18.576;2023-09-12T08:40:01;23.06;67.81
70928;SHT31;58587;53.034;18.576;2023-09-12T08:42:27;23.16;67.25
70928;SHT31;58587;53.034;18.576;2023-09-12T08:44:53;23.19;66.70
70928;SHT31;58587;53.034;18.576;2023-09-12T08:47:19;23.27;67.08
70928;SHT31;58587;53.034;18.576;2023-09-12T08:49:47;23.37;66.01
70928;SHT31;58587;53.034;18.576;2023-09-12T08:52:13;23.43;63.53
70928;SHT31;58587;53.034;18.576;2023-09-12T08:54:38;23.47;63.33
70928;SHT31;58587;53.034;18.576;2023-09-12T08:57:05;23.56;65.46
70928;SHT31;58587;53.034;18.576;2023-09-12T08:59:34;23.66;66.21
70928;SHT31;58587;53.034;18.576;2023-09-12T09:02:06;23.74;63.73
70928;SHT31;58587;53.034;18.576;2023-09-12T09:04:38;23.85;64.97
70928;SHT31;58587;53.034;18.576;2023-09-12T09:07:08;23.91;64.68
70928;SHT31;58587;53.034;18.576;2023-09-12T09:09:36;24.00;65.18
70928;SHT31;58587;53.034;18.576;2023-09-12T09:12:07;24.08;64.63
70928;SHT31;58587;53.034;18.576;2023-09-12T09:14:32;24.20;63.99
70928;SHT31;58587;53.034;18.576;2023-09-12T09:16:58;24.31;62.05
70928;SHT31;58587;53.034;18.576;2023-09-12T09:19:47;24.35;62.75
70928;SHT31;58587;53.034;18.576;2023-09-12T09:22:13;24.42;61.59
70928;SHT31;58587;53.034;18.576;2023-09-12T09:24:39;24.49;62.22
70928;SHT31;58587;53.034;18.576;2023-09-12T09:27:04;24.59;58.72
70928;SHT31;58587;53.034;18.576;2023-09-12T09:29:30;24.66;60.02
70928;SHT31;58587;53.034;18.576;2023-09-12T09:32:01;24.80;57.04
70928;SHT31;58587;53.034;18.576;2023-09-12T09:34:27;24.82;59.55
70928;SHT31;58587;53.034;18.576;2023-09-12T09:36:55;24.92;59.53
70928;SHT31;58587;53.034;18.576;2023-09-12T09:39:27;25.00;60.42
70928;SHT31;58587;53.034;18.576;2023-09-12T09:41:56;25.10;60.89
70928;SHT31;58587;53.034;18.576;2023-09-12T09:44:24;25.19;58.67
70928;SHT31;58587;53.034;18.576;2023-09-12T09:46:54;25.24;56.88
70928;SHT31;58587;53.034;18.576;2023-09-12T09:49:20;25.30;56.71
70928;SHT31;58587;53.034;18.576;2023-09-12T09:51:46;25.38;55.92
70928;SHT31;58587;53.034;18.576;2023-09-12T09:54:12;25.44;54.00
70928;SHT31;58587;53.034;18.576;2023-09-12T09:56:48;25.53;56.63
70928;SHT31;58587;53.034;18.576;2023-09-12T09:59:16;25.61;57.81
70928;SHT31;58587;53.034;18.576;2023-09-12T10:01:44;25.75;54.39
70928;SHT31;58587;53.034;18.576;2023-09-12T10:04:13;25.81;55.47
70928;SHT31;58587;53.034;18.576;2023-09-12T10:06:44;25.94;55.96
70928;SHT31;58587;53.034;18.576;2023-09-12T10:09:11;26.01;54.73
70928;SHT31;58587;53.034;18.576;2023-09-12T10:11:39;26.08;54.32
70928;SHT31;58587;53.034;18.576;2023-09-12T10:14:05;26.22;53.41
70928;SHT31;58587;53.034;18.576;2023-09-12T10:19:04;26.43;54.57
70928;SHT31;58587;53.034;18.576;2023-09-12T10:21:33;26.62;52.18
70928;SHT31;58587;53.034;18.576;2023-09-12T10:23:59;26.68;50.06
70928;SHT31;58587;53.034;18.576;2023-09-12T10:26:26;26.78;52.19
70928;SHT31;58587;53.034;18.576;2023-09-12T10:28:52;26.94;53.94
70928;SHT31;58587;53.034;18.576;2023-09-12T10:31:18;27.07;50.36
70928;SHT31;58587;53.034;18.576;2023-09-12T10:33:44;27.20;52.49
70928;SHT31;58587;53.034;18.576;2023-09-12T10:36:11;27.30;48.58
70928;SHT31;58587;53.034;18.576;2023-09-12T10:38:44;27.38;48.00
70928;SHT31;58587;53.034;18.576;2023-09-12T10:41:12;27.43;50.35
70928;SHT31;58587;53.034;18.576;2023-09-12T10:43:40;27.54;50.27
70928;SHT31;58587;53.034;18.576;2023-09-12T10:46:06;27.64;50.47
70928;SHT31;58587;53.034;18.576;2023-09-12T10:48:32;27.81;52.05
70928;SHT31;58587;53.034;18.576;2023-09-12T10:51:01;27.95;51.27
70928;SHT31;58587;53.034;18.576;2023-09-12T10:53:30;28.09;50.92
70928;SHT31;58587;53.034;18.576;2023-09-12T10:56:19;28.19;49.79
70928;SHT31;58587;53.034;18.576;2023-09-12T11:01:32;28.45;47.66
70928;SHT31;58587;53.034;18.576;2023-09-12T11:06:46;28.67;48.05
70928;SHT31;58587;53.034;18.576;2023-09-12T11:09:19;28.76;48.39
70928;SHT31;58587;53.034;18.576;2023-09-12T11:11:47;28.81;47.11
70928;SHT31;58587;53.034;18.576;2023-09-12T11:14:16;29.04;48.50
70928;SHT31;58587;53.034;18.576;2023-09-12T11:16:43;29.10;47.92
70928;SHT31;58587;53.034;18.576;2023-09-12T11:19:16;29.22;47.65
70928;SHT31;58587;53.034;18.576;2023-09-12T11:21:47;29.37;47.77
70928;SHT31;58587;53.034;18.576;2023-09-12T11:24:14;29.48;47.01
70928;SHT31;58587;53.034;18.576;2023-09-12T11:26:53;29.65;45.89
70928;SHT31;58587;53.034;18.576;2023-09-12T11:29:19;29.82;46.13
70928;SHT31;58587;53.034;18.576;2023-09-12T11:31:55;29.90;45.05
70928;SHT31;58587;53.034;18.576;2023-09-12T11:34:25;30.08;46.64
70928;SHT31;58587;53.034;18.576;2023-09-12T11:36:57;30.16;45.35
70928;SHT31;58587;53.034;18.576;2023-09-12T11:39:31;30.43;47.34
70928;SHT31;58587;53.034;18.576;2023-09-12T11:41:58;30.59;42.95
70928;SHT31;58587;53.034;18.576;2023-09-12T11:44:24;30.70;44.69
70928;SHT31;58587;53.034;18.576;2023-09-12T11:46:54;30.88;44.18
70928;SHT31;58587;53.034;18.576;2023-09-12T11:49:20;31.07;43.67
70928;SHT31;58587;53.034;18.576;2023-09-12T11:51:50;31.25;42.62
70928;SHT31;58587;53.034;18.576;2023-09-12T11:54:24;31.45;42.68
70928;SHT31;58587;53.034;18.576;2023-09-12T11:56:50;31.69;43.17
70928;SHT31;58587;53.034;18.576;2023-09-12T11:59:30;31.83;41.93
70928;SHT31;58587;53.034;18.576;2023-09-12T12:01:56;32.03;40.78
70928;SHT31;58587;53.034;18.576;2023-09-12T12:04:23;32.02;40.32
70928;SHT31;58587;53.034;18.576;2023-09-12T12:06:50;32.33;42.71
70928;SHT31;58587;53.034;18.576;2023-09-12T12:09:16;32.57;41.82
70928;SHT31;58587;53.034;18.576;2023-09-12T12:11:44;32.91;39.69
70928;SHT31;58587;53.034;18.576;2023-09-12T12:14:17;33.26;39.44
70928;SHT31;58587;53.034;18.576;2023-09-12T12:16:43;33.56;37.25
70928;SHT31;58587;53.034;18.576;2023-09-12T12:19:10;33.90;38.05
70928;SHT31;58587;53.034;18.576;2023-09-12T12:21:39;34.24;37.35
70928;SHT31;58587;53.034;18.576;2023-09-12T12:24:07;34.74;37.98
70928;SHT31;58587;53.034;18.576;2023-09-12T12:26:33;35.14;34.38
70928;SHT31;58587;53.034;18.576;2023-09-12T12:29:04;35.62;34.19
70928;SHT31;58587;53.034;18.576;2023-09-12T12:31:29;35.93;33.35
70928;SHT31;58587;53.034;18.576;2023-09-12T12:33:56;36.47;33.13
70928;SHT31;58587;53.034;18.576;2023-09-12T12:36:22;36.99;32.34
70928;SHT31;58587;53.034;18.576;2023-09-12T12:38:49;37.52;31.31
70928;SHT31;58587;53.034;18.576;2023-09-12T12:41:15;38.06;31.34
70928;SHT31;58587;53.034;18.576;2023-09-12T12:43:42;38.54;30.70
70928;SHT31;58587;53.034;18.576;2023-09-12T12:46:12;38.94;29.70
70928;SHT31;58587;53.034;18.576;2023-09-12T12:48:38;39.34;29.82
70928;SHT31;58587;53.034;18.576;2023-09-12T12:51:23;39.52;27.45
70928;SHT31;58587;53.034;18.576;2023-09-12T12:53:54;39.88;26.85
70928;SHT31;58587;53.034;18.576;2023-09-12T12:56:28;40.17;26.59
70928;SHT31;58587;53.034;18.576;2023-09-12T12:58:55;40.71;26.46
70928;SHT31;58587;53.034;18.576;2023-09-12T13:01:22;41.07;26.61
70928;SHT31;58587;53.034;18.576;2023-09-12T13:03:48;41.19;25.59
70928;SHT31;58587;53.034;18.576;2023-09-12T13:06:15;41.46;25.89
70928;SHT31;58587;53.034;18.576;2023-09-12T13:08:43;41.90;25.84
70928;SHT31;58587;53.034;18.576;2023-09-12T13:11:13;41.93;24.79
70928;SHT31;58587;53.034;18.576;2023-09-12T13:13:39;42.10;24.43
70928;SHT31;58587;53.034;18.576;2023-09-12T13:16:05;42.32;25.16
70928;SHT31;58587;53.034;18.576;2023-09-12T13:18:33;42.48;23.91
70928;SHT31;58587;53.034;18.576;2023-09-12T13:20:59;42.84;23.95
70928;SHT31;58587;53.034;18.576;2023-09-12T13:23:24;43.01;23.87
70928;SHT31;58587;53.034;18.576;2023-09-12T13:25:50;43.12;23.92
70928;SHT31;58587;53.034;18.576;2023-09-12T13:28:16;43.41;22.93
70928;SHT31;58587;53.034;18.576;2023-09-12T13:30:41;43.57;23.54
70928;SHT31;58587;53.034;18.576;2023-09-12T13:33:06;43.57;22.19
70928;SHT31;58587;53.034;18.576;2023-09-12T13:35:32;43.62;23.11
70928;SHT31;58587;53.034;18.576;2023-09-12T13:37:57;43.70;22.53
70928;SHT31;58587;53.034;18.576;2023-09-12T13:40:22;44.04;22.86
70928;SHT31;58587;53.034;18.576;2023-09-12T13:42:48;43.93;23.01
70928;SHT31;58587;53.034;18.576;2023-09-12T13:45:13;44.03;23.25
70928;SHT31;58587;53.034;18.576;2023-09-12T13:47:38;43.86;23.02
70928;SHT31;58587;53.034;18.576;2023-09-12T13:50:04;44.15;21.85
70928;SHT31;58587;53.034;18.576;2023-09-12T13:52:30;43.87;22.19
70928;SHT31;58587;53.034;18.576;2023-09-12T13:54:55;43.65;23.39
70928;SHT31;58587;53.034;18.576;2023-09-12T13:57:21;44.10;21.99
70928;SHT31;58587;53.034;18.576;2023-09-12T13:59:46;43.77;22.88
70928;SHT31;58587;53.034;18.576;2023-09-12T14:02:11;43.79;22.66
70928;SHT31;58587;53.034;18.576;2023-09-12T14:04:37;44.01;24.25
70928;SHT31;58587;53.034;18.576;2023-09-12T14:07:02;43.67;22.07
70928;SHT31;58587;53.034;18.576;2023-09-12T14:09:28;43.59;23.39
70928;SHT31;58587;53.034;18.576;2023-09-12T14:11:53;43.90;22.24
70928;SHT31;58587;53.034;18.576;2023-09-12T14:14:18;43.85;23.39
70928;SHT31;58587;53.034;18.576;2023-09-12T14:16:45;43.83;23.13
70928;SHT31;58587;53.034;18.576;2023-09-12T14:19:10;43.11;23.03
70928;SHT31;58587;53.034;18.576;2023-09-12T14:21:36;43.02;23.38
70928;SHT31;58587;53.034;18.576;2023-09-12T14:24:02;42.96;24.49
70928;SHT31;58587;53.034;18.576;2023-09-12T14:26:28;42.26;25.83
70928;SHT31;58587;53.034;18.576;2023-09-12T14:28:53;42.24;24.34
70928;SHT31;58587;53.034;18.576;2023-09-12T14:31:20;41.78;24.53
70928;SHT31;58587;53.034;18.576;2023-09-12T14:33:47;40.94;23.89
70928;SHT31;58587;53.034;18.576;2023-09-12T14:36:13;40.05;27.26
70928;SHT31;58587;53.034;18.576;2023-09-12T14:38:38;39.59;27.26
70928;SHT31;58587;53.034;18.576;2023-09-12T14:41:03;39.24;28.83
70928;SHT31;58587;53.034;18.576;2023-09-12T14:43:29;38.67;27.44
70928;SHT31;58587;53.034;18.576;2023-09-12T14:45:55;38.12;29.46
70928;SHT31;58587;53.034;18.576;2023-09-12T14:48:20;37.66;29.41
70928;SHT31;58587;53.034;18.576;2023-09-12T14:50:45;37.11;30.88
70928;SHT31;58587;53.034;18.576;2023-09-12T14:53:14;36.62;30.12
70928;SHT31;58587;53.034;18.576;2023-09-12T14:55:40;35.92;29.77
70928;SHT31;58587;53.034;18.576;2023-09-12T14:58:05;35.46;31.85
70928;SHT31;58587;53.034;18.576;2023-09-12T15:00:30;34.91;33.22
70928;SHT31;58587;53.034;18.576;2023-09-12T15:02:57;34.36;32.92
70928;SHT31;58587;53.034;18.576;2023-09-12T15:05:23;34.05;32.58
70928;SHT31;58587;53.034;18.576;2023-09-12T15:07:48;33.55;35.28
70928;SHT31;58587;53.034;18.576;2023-09-12T15:10:13;33.19;33.37
70928;SHT31;58587;53.034;18.576;2023-09-12T15:12:39;32.88;34.40
70928;SHT31;58587;53.034;18.576;2023-09-12T15:15:04;32.56;37.03
70928;SHT31;58587;53.034;18.576;2023-09-12T15:17:30;32.16;35.59
70928;SHT31;58587;53.034;18.576;2023-09-12T15:19:55;31.90;38.28
70928;SHT31;58587;53.034;18.576;2023-09-12T15:22:20;31.68;39.25
70928;SHT31;58587;53.034;18.576;2023-09-12T15:24:46;31.41;39.63